sensor_id;sensor_type;location;lat;lon;timestamp;P1;durP1;ratioP1;P2;durP2;ratioP2
10910;SDS011;5508;49.150;11.030;2023-03-09T00:00:41;3.60;;;2.40;;
10910;SDS011;5508;49.150;11.030;2023-03-09T00:03:41;2.30;;;2.10;;
10910;SDS011;5508;49.150;11.030;2023-03-09T00:06:42;2.57;;;2.37;;
10910;SDS011;5508;49.150;11.030;2023-03-09T00:09:44;4.07;;;2.40;;
10910;SDS011;5508;49.150;11.030;2023-03-09T00:12:44;2.60;;;2.37;;
10910;SDS011;5508;49.150;11.030;2023-03-09T00:15:45;2.60;;;2.00;;
10910;SDS011;5508;49.150;11.030;2023-03-09T00:18:50;2.90;;;2.33;;
10910;SDS011;5508;49.150;11.030;2023-03-09T00:21:54;4.50;;;2.00;;
10910;SDS011;5508;49.150;11.030;2023-03-09T00:24:55;2.20;;;1.90;;
10910;SDS011;5508;49.150;11.030;2023-03-09T00:27:56;2.70;;;1.70;;
10910;SDS011;5508;49.150;11.030;2023-03-09T00:31:00;2.17;;;1.70;;
10910;SDS011;5508;49.150;11.030;2023-03-09T00:34:05;2.03;;;1.80;;
10910;SDS011;5508;49.150;11.030;2023-03-09T00:37:06;2.10;;;1.90;;
10910;SDS011;5508;49.150;11.030;2023-03-09T00:40:07;2.27;;;2.03;;
10910;SDS011;5508;49.150;11.030;2023-03-09T00:43:10;2.40;;;2.07;;
10910;SDS011;5508;49.150;11.030;2023-03-09T00:46:10;2.53;;;2.30;;
10910;SDS011;5508;49.150;11.030;2023-03-09T00:49:12;4.03;;;2.80;;
10910;SDS011;5508;49.150;11.030;2023-03-09T00:52:17;2.93;;;2.63;;
10910;SDS011;5508;49.150;11.030;2023-03-09T00:55:18;2.80;;;2.60;;
10910;SDS011;5508;49.150;11.030;2023-03-09T00:58:18;2.77;;;2.50;;
10910;SDS011;5508;49.150;11.030;2023-03-09T01:01:19;2.83;;;2.33;;
10910;SDS011;5508;49.150;11.030;2023-03-09T01:04:20;2.87;;;2.60;;
10910;SDS011;5508;49.150;11.030;2023-03-09T01:07:21;3.07;;;2.40;;
10910;SDS011;5508;49.150;11.030;2023-03-09T01:10:22;2.50;;;2.27;;
10910;SDS011;5508;49.150;11.030;2023-03-09T01:13:23;2.43;;;2.00;;
10910;SDS011;5508;49.150;11.030;2023-03-09T01:16:24;2.13;;;1.93;;
10910;SDS011;5508;49.150;11.030;2023-03-09T01:19:24;3.13;;;1.90;;
10910;SDS011;5508;49.150;11.030;2023-03-09T01:22:25;2.90;;;2.00;;
10910;SDS011;5508;49.150;11.030;2023-03-09T01:25:26;2.10;;;1.83;;
10910;SDS011;5508;49.150;11.030;2023-03-09T01:28:27;2.97;;;2.30;;
10910;SDS011;5508;49.150;11.030;2023-03-09T01:31:27;4.63;;;2.50;;
10910;SDS011;5508;49.150;11.030;2023-03-09T01:34:28;3.53;;;3.00;;
10910;SDS011;5508;49.150;11.030;2023-03-09T01:37:29;3.60;;;3.13;;
10910;SDS011;5508;49.150;11.030;2023-03-09T01:40:29;4.67;;;3.93;;
10910;SDS011;5508;49.150;11.030;2023-03-09T01:43:34;4.90;;;4.37;;
10910;SDS011;5508;49.150;11.030;2023-03-09T01:52:43;3.70;;;1.53;;
10910;SDS011;5508;49.150;11.030;2023-03-09T01:55:46;1.10;;;1.00;;
10910;SDS011;5508;49.150;11.030;2023-03-09T01:58:50;2.37;;;1.00;;
10910;SDS011;5508;49.150;11.030;2023-03-09T02:01:53;0.80;;;0.60;;
10910;SDS011;5508;49.150;11.030;2023-03-09T02:04:58;3.03;;;0.80;;
10910;SDS011;5508;49.150;11.030;2023-03-09T02:08:01;1.00;;;0.70;;
10910;SDS011;5508;49.150;11.030;2023-03-09T02:11:06;1.20;;;0.60;;
10910;SDS011;5508;49.150;11.030;2023-03-09T02:14:09;3.70;;;0.67;;
10910;SDS011;5508;49.150;11.030;2023-03-09T02:17:10;1.03;;;0.63;;
10910;SDS011;5508;49.150;11.030;2023-03-09T02:23:21;1.17;;;0.80;;
10910;SDS011;5508;49.150;11.030;2023-03-09T02:26:39;2.17;;;0.90;;
10910;SDS011;5508;49.150;11.030;2023-03-09T02:29:40;2.07;;;0.70;;
10910;SDS011;5508;49.150;11.030;2023-03-09T02:32:41;1.97;;;0.87;;
10910;SDS011;5508;49.150;11.030;2023-03-09T02:35:41;0.97;;;0.60;;
10910;SDS011;5508;49.150;11.030;2023-03-09T02:38:42;1.67;;;0.80;;
10910;SDS011;5508;49.150;11.030;2023-03-09T02:41:43;1.13;;;0.77;;
10910;SDS011;5508;49.150;11.030;2023-03-09T02:44:44;1.30;;;0.53;;
10910;SDS011;5508;49.150;11.030;2023-03-09T02:47:45;0.43;;;0.43;;
10910;SDS011;5508;49.150;11.030;2023-03-09T02:50:46;1.10;;;0.60;;
10910;SDS011;5508;49.150;11.030;2023-03-09T02:53:46;0.67;;;0.63;;
10910;SDS011;5508;49.150;11.030;2023-03-09T02:56:47;2.70;;;0.90;;
10910;SDS011;5508;49.150;11.030;2023-03-09T02:59:48;1.70;;;0.70;;
10910;SDS011;5508;49.150;11.030;2023-03-09T03:02:48;2.87;;;0.80;;
10910;SDS011;5508;49.150;11.030;2023-03-09T03:05:49;1.50;;;0.60;;
10910;SDS011;5508;49.150;11.030;2023-03-09T03:08:50;1.10;;;0.87;;
10910;SDS011;5508;49.150;11.030;2023-03-09T03:11:50;1.07;;;0.67;;
10910;SDS011;5508;49.150;11.030;2023-03-09T03:14:51;1.50;;;0.70;;
10910;SDS011;5508;49.150;11.030;2023-03-09T03:17:52;0.83;;;0.73;;
10910;SDS011;5508;49.150;11.030;2023-03-09T03:20:52;0.60;;;0.60;;
10910;SDS011;5508;49.150;11.030;2023-03-09T03:23:53;0.80;;;0.60;;
10910;SDS011;5508;49.150;11.030;2023-03-09T03:26:54;1.60;;;0.70;;
10910;SDS011;5508;49.150;11.030;2023-03-09T03:29:54;0.50;;;0.50;;
10910;SDS011;5508;49.150;11.030;2023-03-09T03:32:55;0.73;;;0.40;;
10910;SDS011;5508;49.150;11.030;2023-03-09T03:35:56;0.90;;;0.70;;
10910;SDS011;5508;49.150;11.030;2023-03-09T03:38:56;0.47;;;0.43;;
10910;SDS011;5508;49.150;11.030;2023-03-09T03:41:57;0.67;;;0.53;;
10910;SDS011;5508;49.150;11.030;2023-03-09T03:44:58;0.60;;;0.50;;
10910;SDS011;5508;49.150;11.030;2023-03-09T03:47:58;1.37;;;0.60;;
10910;SDS011;5508;49.150;11.030;2023-03-09T03:50:59;0.50;;;0.50;;
10910;SDS011;5508;49.150;11.030;2023-03-09T03:54:00;1.43;;;0.50;;
10910;SDS011;5508;49.150;11.030;2023-03-09T03:57:00;2.87;;;0.80;;
10910;SDS011;5508;49.150;11.030;2023-03-09T04:00:01;0.40;;;0.40;;
10910;SDS011;5508;49.150;11.030;2023-03-09T04:03:07;0.20;;;0.20;;
10910;SDS011;5508;49.150;11.030;2023-03-09T04:06:07;0.60;;;0.60;;
10910;SDS011;5508;49.150;11.030;2023-03-09T04:09:08;0.40;;;0.40;;
10910;SDS011;5508;49.150;11.030;2023-03-09T04:12:09;0.60;;;0.60;;
10910;SDS011;5508;49.150;11.030;2023-03-09T04:15:09;2.20;;;1.13;;
10910;SDS011;5508;49.150;11.030;2023-03-09T04:18:10;0.50;;;0.50;;
10910;SDS011;5508;49.150;11.030;2023-03-09T04:21:11;1.23;;;0.47;;
10910;SDS011;5508;49.150;11.030;2023-03-09T04:24:11;1.07;;;0.50;;
10910;SDS011;5508;49.150;11.030;2023-03-09T04:27:12;0.83;;;0.50;;
10910;SDS011;5508;49.150;11.030;2023-03-09T04:30:13;0.50;;;0.50;;
10910;SDS011;5508;49.150;11.030;2023-03-09T04:33:14;1.10;;;0.53;;
10910;SDS011;5508;49.150;11.030;2023-03-09T04:36:14;0.77;;;0.47;;
10910;SDS011;5508;49.150;11.030;2023-03-09T04:39:15;1.57;;;0.50;;
10910;SDS011;5508;49.150;11.030;2023-03-09T04:42:16;0.43;;;0.40;;
10910;SDS011;5508;49.150;11.030;2023-03-09T04:45:16;1.10;;;0.63;;
10910;SDS011;5508;49.150;11.030;2023-03-09T04:48:17;0.87;;;0.40;;
10910;SDS011;5508;49.150;11.030;2023-03-09T04:51:17;0.40;;;0.40;;
10910;SDS011;5508;49.150;11.030;2023-03-09T04:54:18;0.67;;;0.40;;
10910;SDS011;5508;49.150;11.030;2023-03-09T04:57:19;0.50;;;0.40;;
10910;SDS011;5508;49.150;11.030;2023-03-09T05:00:19;0.63;;;0.60;;
10910;SDS011;5508;49.150;11.030;2023-03-09T05:03:20;0.37;;;0.37;;
10910;SDS011;5508;49.150;11.030;2023-03-09T05:06:21;0.50;;;0.50;;
10910;SDS011;5508;49.150;11.030;2023-03-09T05:09:22;0.57;;;0.57;;
10910;SDS011;5508;49.150;11.030;2023-03-09T05:12:22;0.83;;;0.83;;
10910;SDS011;5508;49.150;11.030;2023-03-09T05:15:23;1.40;;;0.87;;
10910;SDS011;5508;49.150;11.030;2023-03-09T05:18:24;2.23;;;0.70;;
10910;SDS011;5508;49.150;11.030;2023-03-09T05:21:24;0.60;;;0.60;;
10910;SDS011;5508;49.150;11.030;2023-03-09T05:24:25;0.50;;;0.50;;
10910;SDS011;5508;49.150;11.030;2023-03-09T05:27:25;1.07;;;0.60;;
10910;SDS011;5508;49.150;11.030;2023-03-09T05:30:26;0.60;;;0.60;;
10910;SDS011;5508;49.150;11.030;2023-03-09T05:33:27;0.60;;;0.60;;
10910;SDS011;5508;49.150;11.030;2023-03-09T05:36:28;0.53;;;0.53;;
10910;SDS011;5508;49.150;11.030;2023-03-09T05:39:29;0.50;;;0.50;;
10910;SDS011;5508;49.150;11.030;2023-03-09T05:42:30;0.87;;;0.80;;
10910;SDS011;5508;49.150;11.030;2023-03-09T05:45:31;0.97;;;0.50;;
10910;SDS011;5508;49.150;11.030;2023-03-09T05:48:31;0.97;;;0.50;;
10910;SDS011;5508;49.150;11.030;2023-03-09T05:51:32;1.30;;;0.90;;
10910;SDS011;5508;49.150;11.030;2023-03-09T05:54:34;1.50;;;0.90;;
10910;SDS011;5508;49.150;11.030;2023-03-09T05:57:35;2.63;;;0.90;;
10910;SDS011;5508;49.150;11.030;2023-03-09T06:00:35;1.27;;;0.80;;
10910;SDS011;5508;49.150;11.030;2023-03-09T06:03:36;1.10;;;0.90;;
10910;SDS011;5508;49.150;11.030;2023-03-09T06:06:36;1.30;;;0.80;;
10910;SDS011;5508;49.150;11.030;2023-03-09T06:09:37;0.77;;;0.73;;
10910;SDS011;5508;49.150;11.030;2023-03-09T06:12:38;2.50;;;1.10;;
10910;SDS011;5508;49.150;11.030;2023-03-09T06:15:39;1.17;;;0.60;;
10910;SDS011;5508;49.150;11.030;2023-03-09T06:18:42;1.67;;;0.80;;
10910;SDS011;5508;49.150;11.030;2023-03-09T06:21:43;1.10;;;0.97;;
10910;SDS011;5508;49.150;11.030;2023-03-09T06:24:43;2.63;;;1.17;;
10910;SDS011;5508;49.150;11.030;2023-03-09T06:27:44;1.33;;;1.00;;
10910;SDS011;5508;49.150;11.030;2023-03-09T06:30:45;1.97;;;1.00;;
10910;SDS011;5508;49.150;11.030;2023-03-09T06:33:46;2.70;;;1.60;;
10910;SDS011;5508;49.150;11.030;2023-03-09T06:36:47;1.83;;;1.13;;
10910;SDS011;5508;49.150;11.030;2023-03-09T06:39:47;3.30;;;1.20;;
10910;SDS011;5508;49.150;11.030;2023-03-09T06:42:48;3.97;;;1.30;;
10910;SDS011;5508;49.150;11.030;2023-03-09T06:45:49;1.43;;;1.03;;
10910;SDS011;5508;49.150;11.030;2023-03-09T06:48:49;3.30;;;1.40;;
10910;SDS011;5508;49.150;11.030;2023-03-09T06:51:50;3.27;;;1.33;;
10910;SDS011;5508;49.150;11.030;2023-03-09T06:54:50;1.90;;;1.20;;
10910;SDS011;5508;49.150;11.030;2023-03-09T06:57:51;2.47;;;1.13;;
10910;SDS011;5508;49.150;11.030;2023-03-09T07:00:52;2.33;;;1.53;;
10910;SDS011;5508;49.150;11.030;2023-03-09T07:03:52;2.53;;;1.20;;
10910;SDS011;5508;49.150;11.030;2023-03-09T07:06:53;2.53;;;1.20;;
10910;SDS011;5508;49.150;11.030;2023-03-09T07:09:54;4.67;;;1.50;;
10910;SDS011;5508;49.150;11.030;2023-03-09T07:12:54;5.17;;;1.60;;
10910;SDS011;5508;49.150;11.030;2023-03-09T07:15:55;9.97;;;1.60;;
10910;SDS011;5508;49.150;11.030;2023-03-09T07:18:56;5.80;;;1.50;;
10910;SDS011;5508;49.150;11.030;2023-03-09T07:21:56;4.77;;;1.50;;
10910;SDS011;5508;49.150;11.030;2023-03-09T07:24:57;5.20;;;2.20;;
10910;SDS011;5508;49.150;11.030;2023-03-09T07:27:57;3.90;;;1.70;;
10910;SDS011;5508;49.150;11.030;2023-03-09T07:30:58;6.67;;;3.37;;
10910;SDS011;5508;49.150;11.030;2023-03-09T07:34:05;7.00;;;3.67;;
10910;SDS011;5508;49.150;11.030;2023-03-09T07:37:06;6.40;;;2.10;;
10910;SDS011;5508;49.150;11.030;2023-03-09T07:40:07;11.60;;;1.90;;
10910;SDS011;5508;49.150;11.030;2023-03-09T07:43:09;4.43;;;1.40;;
10910;SDS011;5508;49.150;11.030;2023-03-09T07:46:12;4.70;;;1.80;;
10910;SDS011;5508;49.150;11.030;2023-03-09T07:49:15;7.27;;;1.50;;
10910;SDS011;5508;49.150;11.030;2023-03-09T07:52:15;7.20;;;2.10;;
10910;SDS011;5508;49.150;11.030;2023-03-09T07:55:19;7.83;;;2.87;;
10910;SDS011;5508;49.150;11.030;2023-03-09T07:58:22;5.37;;;1.80;;
10910;SDS011;5508;49.150;11.030;2023-03-09T08:01:23;4.57;;;2.33;;
10910;SDS011;5508;49.150;11.030;2023-03-09T08:04:24;8.30;;;2.20;;
10910;SDS011;5508;49.150;11.030;2023-03-09T08:07:25;7.20;;;2.30;;
10910;SDS011;5508;49.150;11.030;2023-03-09T08:10:26;4.13;;;1.70;;
10910;SDS011;5508;49.150;11.030;2023-03-09T08:13:27;7.27;;;1.77;;
10910;SDS011;5508;49.150;11.030;2023-03-09T08:16:27;10.30;;;1.90;;
10910;SDS011;5508;49.150;11.030;2023-03-09T08:19:28;7.83;;;2.40;;
10910;SDS011;5508;49.150;11.030;2023-03-09T08:22:28;6.97;;;2.27;;
10910;SDS011;5508;49.150;11.030;2023-03-09T08:25:29;9.43;;;2.00;;
10910;SDS011;5508;49.150;11.030;2023-03-09T08:28:30;7.60;;;2.13;;
10910;SDS011;5508;49.150;11.030;2023-03-09T08:31:31;5.87;;;1.70;;
10910;SDS011;5508;49.150;11.030;2023-03-09T08:34:33;6.90;;;1.87;;
10910;SDS011;5508;49.150;11.030;2023-03-09T08:37:34;7.13;;;2.37;;
10910;SDS011;5508;49.150;11.030;2023-03-09T08:40:36;9.40;;;3.10;;
10910;SDS011;5508;49.150;11.030;2023-03-09T08:43:38;11.67;;;4.57;;
10910;SDS011;5508;49.150;11.030;2023-03-09T08:46:38;9.40;;;2.50;;
10910;SDS011;5508;49.150;11.030;2023-03-09T08:49:39;5.57;;;2.27;;
10910;SDS011;5508;49.150;11.030;2023-03-09T08:52:41;11.43;;;2.37;;
10910;SDS011;5508;49.150;11.030;2023-03-09T08:55:41;21.13;;;8.10;;
10910;SDS011;5508;49.150;11.030;2023-03-09T08:58:42;15.87;;;6.87;;
10910;SDS011;5508;49.150;11.030;2023-03-09T09:01:42;4.90;;;2.77;;
10910;SDS011;5508;49.150;11.030;2023-03-09T09:04:43;17.67;;;7.00;;
10910;SDS011;5508;49.150;11.030;2023-03-09T09:07:44;12.17;;;3.50;;
10910;SDS011;5508;49.150;11.030;2023-03-09T09:10:45;10.53;;;3.87;;
10910;SDS011;5508;49.150;11.030;2023-03-09T09:13:46;8.57;;;2.30;;
10910;SDS011;5508;49.150;11.030;2023-03-09T09:16:47;5.73;;;2.40;;
10910;SDS011;5508;49.150;11.030;2023-03-09T09:19:47;7.57;;;1.97;;
10910;SDS011;5508;49.150;11.030;2023-03-09T09:22:48;9.77;;;2.40;;
10910;SDS011;5508;49.150;11.030;2023-03-09T09:25:53;6.80;;;2.03;;
10910;SDS011;5508;49.150;11.030;2023-03-09T09:28:55;10.13;;;1.97;;
10910;SDS011;5508;49.150;11.030;2023-03-09T09:31:55;8.97;;;2.47;;
10910;SDS011;5508;49.150;11.030;2023-03-09T09:34:57;6.63;;;1.90;;
10910;SDS011;5508;49.150;11.030;2023-03-09T09:37:58;7.03;;;1.93;;
10910;SDS011;5508;49.150;11.030;2023-03-09T09:41:09;4.30;;;1.30;;
10910;SDS011;5508;49.150;11.030;2023-03-09T09:44:33;4.10;;;1.23;;
10910;SDS011;5508;49.150;11.030;2023-03-09T09:47:38;6.70;;;2.20;;
10910;SDS011;5508;49.150;11.030;2023-03-09T09:51:04;6.07;;;1.70;;
10910;SDS011;5508;49.150;11.030;2023-03-09T09:54:06;6.47;;;3.40;;
10910;SDS011;5508;49.150;11.030;2023-03-09T09:57:13;5.77;;;2.10;;
10910;SDS011;5508;49.150;11.030;2023-03-09T10:00:40;6.00;;;2.17;;
10910;SDS011;5508;49.150;11.030;2023-03-09T10:03:44;7.43;;;2.03;;
10910;SDS011;5508;49.150;11.030;2023-03-09T10:06:46;2.57;;;1.27;;
10910;SDS011;5508;49.150;11.030;2023-03-09T10:09:49;4.60;;;1.67;;
10910;SDS011;5508;49.150;11.030;2023-03-09T10:12:54;6.77;;;1.57;;
10910;SDS011;5508;49.150;11.030;2023-03-09T10:15:58;7.67;;;1.70;;
10910;SDS011;5508;49.150;11.030;2023-03-09T10:19:05;5.47;;;1.67;;
10910;SDS011;5508;49.150;11.030;2023-03-09T10:25:18;3.00;;;1.30;;
10910;SDS011;5508;49.150;11.030;2023-03-09T10:28:21;3.33;;;1.10;;
10910;SDS011;5508;49.150;11.030;2023-03-09T10:31:33;5.60;;;2.27;;
10910;SDS011;5508;49.150;11.030;2023-03-09T10:34:52;4.13;;;1.90;;
10910;SDS011;5508;49.150;11.030;2023-03-09T10:37:55;5.80;;;2.77;;
10910;SDS011;5508;49.150;11.030;2023-03-09T10:40:56;3.73;;;2.10;;
10910;SDS011;5508;49.150;11.030;2023-03-09T10:43:57;3.43;;;1.83;;
10910;SDS011;5508;49.150;11.030;2023-03-09T10:47:00;2.83;;;1.40;;
10910;SDS011;5508;49.150;11.030;2023-03-09T10:50:06;5.47;;;1.83;;
10910;SDS011;5508;49.150;11.030;2023-03-09T10:56:24;6.50;;;2.27;;
10910;SDS011;5508;49.150;11.030;2023-03-09T10:59:27;12.80;;;5.30;;
10910;SDS011;5508;49.150;11.030;2023-03-09T11:02:31;2.80;;;1.30;;
10910;SDS011;5508;49.150;11.030;2023-03-09T11:05:36;3.07;;;1.70;;
10910;SDS011;5508;49.150;11.030;2023-03-09T11:08:36;3.90;;;1.50;;
10910;SDS011;5508;49.150;11.030;2023-03-09T11:11:38;4.10;;;1.53;;
10910;SDS011;5508;49.150;11.030;2023-03-09T11:14:41;6.33;;;2.43;;
10910;SDS011;5508;49.150;11.030;2023-03-09T11:17:53;3.50;;;1.80;;
10910;SDS011;5508;49.150;11.030;2023-03-09T11:20:55;4.23;;;1.43;;
10910;SDS011;5508;49.150;11.030;2023-03-09T11:23:56;12.80;;;8.23;;
10910;SDS011;5508;49.150;11.030;2023-03-09T11:27:11;3.57;;;2.00;;
10910;SDS011;5508;49.150;11.030;2023-03-09T11:30:20;7.07;;;3.70;;
10910;SDS011;5508;49.150;11.030;2023-03-09T11:33:25;6.47;;;2.70;;
10910;SDS011;5508;49.150;11.030;2023-03-09T11:37:31;5.53;;;2.43;;
10910;SDS011;5508;49.150;11.030;2023-03-09T11:40:10;4.63;;;1.40;;
10910;SDS011;5508;49.150;11.030;2023-03-09T11:43:20;5.03;;;1.93;;
10910;SDS011;5508;49.150;11.030;2023-03-09T11:46:26;1.77;;;1.10;;
10910;SDS011;5508;49.150;11.030;2023-03-09T11:49:27;3.90;;;1.13;;
10910;SDS011;5508;49.150;11.030;2023-03-09T11:52:31;3.67;;;1.30;;
10910;SDS011;5508;49.150;11.030;2023-03-09T11:55:37;4.70;;;2.53;;
10910;SDS011;5508;49.150;11.030;2023-03-09T11:58:42;4.90;;;1.47;;
10910;SDS011;5508;49.150;11.030;2023-03-09T12:04:52;4.03;;;1.60;;
10910;SDS011;5508;49.150;11.030;2023-03-09T12:08:01;2.53;;;1.53;;
10910;SDS011;5508;49.150;11.030;2023-03-09T12:11:20;3.00;;;1.47;;
10910;SDS011;5508;49.150;11.030;2023-03-09T12:14:36;3.40;;;1.17;;
10910;SDS011;5508;49.150;11.030;2023-03-09T12:17:51;1.93;;;1.00;;
10910;SDS011;5508;49.150;11.030;2023-03-09T12:21:00;1.50;;;0.97;;
10910;SDS011;5508;49.150;11.030;2023-03-09T12:27:30;1.20;;;0.87;;
10910;SDS011;5508;49.150;11.030;2023-03-09T12:30:37;2.93;;;1.13;;
10910;SDS011;5508;49.150;11.030;2023-03-09T12:34:00;2.13;;;0.90;;
10910;SDS011;5508;49.150;11.030;2023-03-09T12:40:30;2.80;;;1.07;;
10910;SDS011;5508;49.150;11.030;2023-03-09T12:43:45;4.13;;;1.67;;
10910;SDS011;5508;49.150;11.030;2023-03-09T12:46:49;2.00;;;0.90;;
10910;SDS011;5508;49.150;11.030;2023-03-09T12:49:57;2.97;;;1.57;;
10910;SDS011;5508;49.150;11.030;2023-03-09T12:56:14;4.10;;;1.90;;
10910;SDS011;5508;49.150;11.030;2023-03-09T12:59:21;1.90;;;1.33;;
10910;SDS011;5508;49.150;11.030;2023-03-09T13:02:28;5.10;;;1.20;;
10910;SDS011;5508;49.150;11.030;2023-03-09T13:05:38;2.83;;;1.20;;
10910;SDS011;5508;49.150;11.030;2023-03-09T13:08:41;2.57;;;0.80;;
10910;SDS011;5508;49.150;11.030;2023-03-09T13:17:43;1.87;;;1.10;;
10910;SDS011;5508;49.150;11.030;2023-03-09T13:24:37;3.00;;;1.67;;
10910;SDS011;5508;49.150;11.030;2023-03-09T13:27:40;2.33;;;1.00;;
10910;SDS011;5508;49.150;11.030;2023-03-09T13:30:42;3.40;;;1.40;;
10910;SDS011;5508;49.150;11.030;2023-03-09T13:33:44;4.40;;;2.23;;
10910;SDS011;5508;49.150;11.030;2023-03-09T13:36:47;3.13;;;0.80;;
10910;SDS011;5508;49.150;11.030;2023-03-09T13:40:02;1.90;;;0.80;;
10910;SDS011;5508;49.150;11.030;2023-03-09T13:43:23;3.23;;;1.20;;
10910;SDS011;5508;49.150;11.030;2023-03-09T13:46:33;6.10;;;2.70;;
10910;SDS011;5508;49.150;11.030;2023-03-09T13:49:35;1.07;;;0.80;;
10910;SDS011;5508;49.150;11.030;2023-03-09T13:52:37;1.47;;;0.97;;
10910;SDS011;5508;49.150;11.030;2023-03-09T13:55:41;2.67;;;0.80;;
10910;SDS011;5508;49.150;11.030;2023-03-09T13:59:10;5.20;;;1.30;;
10910;SDS011;5508;49.150;11.030;2023-03-09T14:02:14;1.87;;;1.30;;
10910;SDS011;5508;49.150;11.030;2023-03-09T14:08:17;4.60;;;2.10;;
10910;SDS011;5508;49.150;11.030;2023-03-09T14:11:24;3.63;;;1.43;;
10910;SDS011;5508;49.150;11.030;2023-03-09T14:14:27;3.93;;;1.07;;
10910;SDS011;5508;49.150;11.030;2023-03-09T14:17:29;4.47;;;2.03;;
10910;SDS011;5508;49.150;11.030;2023-03-09T14:20:34;1.90;;;1.10;;
10910;SDS011;5508;49.150;11.030;2023-03-09T14:23:39;2.77;;;1.50;;
10910;SDS011;5508;49.150;11.030;2023-03-09T14:26:41;2.20;;;1.50;;
10910;SDS011;5508;49.150;11.030;2023-03-09T14:29:42;3.60;;;1.23;;
10910;SDS011;5508;49.150;11.030;2023-03-09T14:32:59;5.53;;;1.13;;
10910;SDS011;5508;49.150;11.030;2023-03-09T14:36:07;9.97;;;4.47;;
10910;SDS011;5508;49.150;11.030;2023-03-09T14:39:32;2.93;;;1.00;;
10910;SDS011;5508;49.150;11.030;2023-03-09T14:42:41;4.40;;;2.00;;
10910;SDS011;5508;49.150;11.030;2023-03-09T14:45:42;4.37;;;1.63;;
10910;SDS011;5508;49.150;11.030;2023-03-09T14:48:50;5.67;;;1.37;;
10910;SDS011;5508;49.150;11.030;2023-03-09T14:51:51;3.17;;;1.40;;
10910;SDS011;5508;49.150;11.030;2023-03-09T14:54:52;5.60;;;1.60;;
10910;SDS011;5508;49.150;11.030;2023-03-09T14:57:53;4.03;;;1.80;;
10910;SDS011;5508;49.150;11.030;2023-03-09T15:00:53;4.63;;;1.83;;
10910;SDS011;5508;49.150;11.030;2023-03-09T15:03:54;4.37;;;0.90;;
10910;SDS011;5508;49.150;11.030;2023-03-09T15:06:57;5.70;;;3.80;;
10910;SDS011;5508;49.150;11.030;2023-03-09T15:09:58;3.70;;;1.30;;
10910;SDS011;5508;49.150;11.030;2023-03-09T15:12:59;4.13;;;1.23;;
10910;SDS011;5508;49.150;11.030;2023-03-09T15:15:59;2.27;;;1.40;;
10910;SDS011;5508;49.150;11.030;2023-03-09T15:19:00;4.90;;;1.30;;
10910;SDS011;5508;49.150;11.030;2023-03-09T15:22:00;5.13;;;2.60;;
10910;SDS011;5508;49.150;11.030;2023-03-09T15:25:01;9.73;;;1.80;;
10910;SDS011;5508;49.150;11.030;2023-03-09T15:28:03;8.00;;;2.20;;
10910;SDS011;5508;49.150;11.030;2023-03-09T15:31:09;2.13;;;1.63;;
10910;SDS011;5508;49.150;11.030;2023-03-09T15:34:13;5.43;;;1.77;;
10910;SDS011;5508;49.150;11.030;2023-03-09T15:37:14;1.97;;;1.47;;
10910;SDS011;5508;49.150;11.030;2023-03-09T15:40:15;1.57;;;1.00;;
10910;SDS011;5508;49.150;11.030;2023-03-09T15:43:16;3.13;;;1.53;;
10910;SDS011;5508;49.150;11.030;2023-03-09T15:46:17;3.53;;;1.50;;
10910;SDS011;5508;49.150;11.030;2023-03-09T15:49:17;4.33;;;1.40;;
10910;SDS011;5508;49.150;11.030;2023-03-09T15:52:18;3.93;;;1.80;;
10910;SDS011;5508;49.150;11.030;2023-03-09T15:55:18;3.30;;;2.13;;
10910;SDS011;5508;49.150;11.030;2023-03-09T15:58:19;4.47;;;1.93;;
10910;SDS011;5508;49.150;11.030;2023-03-09T16:01:20;7.83;;;2.70;;
10910;SDS011;5508;49.150;11.030;2023-03-09T16:04:22;3.90;;;1.60;;
10910;SDS011;5508;49.150;11.030;2023-03-09T16:07:22;3.23;;;2.00;;
10910;SDS011;5508;49.150;11.030;2023-03-09T16:10:23;3.80;;;1.37;;
10910;SDS011;5508;49.150;11.030;2023-03-09T16:13:24;5.63;;;1.63;;
10910;SDS011;5508;49.150;11.030;2023-03-09T16:16:24;5.13;;;1.53;;
10910;SDS011;5508;49.150;11.030;2023-03-09T16:19:25;6.77;;;2.80;;
10910;SDS011;5508;49.150;11.030;2023-03-09T16:22:26;4.07;;;1.90;;
10910;SDS011;5508;49.150;11.030;2023-03-09T16:25:27;3.20;;;1.80;;
10910;SDS011;5508;49.150;11.030;2023-03-09T16:28:28;20.07;;;12.10;;
10910;SDS011;5508;49.150;11.030;2023-03-09T16:31:30;5.47;;;1.73;;
10910;SDS011;5508;49.150;11.030;2023-03-09T16:34:31;7.93;;;3.10;;
10910;SDS011;5508;49.150;11.030;2023-03-09T16:37:32;8.17;;;1.60;;
10910;SDS011;5508;49.150;11.030;2023-03-09T16:40:33;5.90;;;1.70;;
10910;SDS011;5508;49.150;11.030;2023-03-09T16:43:34;16.77;;;10.13;;
10910;SDS011;5508;49.150;11.030;2023-03-09T16:46:35;5.20;;;2.43;;
10910;SDS011;5508;49.150;11.030;2023-03-09T16:49:35;4.07;;;1.53;;
10910;SDS011;5508;49.150;11.030;2023-03-09T16:52:36;4.50;;;2.00;;
10910;SDS011;5508;49.150;11.030;2023-03-09T16:55:37;5.53;;;2.47;;
10910;SDS011;5508;49.150;11.030;2023-03-09T16:58:38;4.20;;;1.83;;
10910;SDS011;5508;49.150;11.030;2023-03-09T17:01:39;6.10;;;2.70;;
10910;SDS011;5508;49.150;11.030;2023-03-09T17:04:40;5.57;;;2.10;;
10910;SDS011;5508;49.150;11.030;2023-03-09T17:07:40;2.13;;;1.47;;
10910;SDS011;5508;49.150;11.030;2023-03-09T17:10:41;6.53;;;2.47;;
10910;SDS011;5508;49.150;11.030;2023-03-09T17:13:43;7.97;;;3.57;;
10910;SDS011;5508;49.150;11.030;2023-03-09T17:16:45;14.67;;;11.20;;
10910;SDS011;5508;49.150;11.030;2023-03-09T17:19:46;14.57;;;9.93;;
10910;SDS011;5508;49.150;11.030;2023-03-09T17:22:47;32.33;;;22.10;;
10910;SDS011;5508;49.150;11.030;2023-03-09T17:25:48;5.67;;;3.63;;
10910;SDS011;5508;49.150;11.030;2023-03-09T17:28:48;27.37;;;19.60;;
10910;SDS011;5508;49.150;11.030;2023-03-09T17:31:49;5.40;;;3.07;;
10910;SDS011;5508;49.150;11.030;2023-03-09T17:34:50;14.43;;;9.27;;
10910;SDS011;5508;49.150;11.030;2023-03-09T17:37:51;13.90;;;7.23;;
10910;SDS011;5508;49.150;11.030;2023-03-09T17:40:51;11.73;;;6.63;;
10910;SDS011;5508;49.150;11.030;2023-03-09T17:43:52;25.47;;;16.43;;
10910;SDS011;5508;49.150;11.030;2023-03-09T17:46:52;13.33;;;6.73;;
10910;SDS011;5508;49.150;11.030;2023-03-09T17:49:54;6.10;;;3.10;;
10910;SDS011;5508;49.150;11.030;2023-03-09T17:52:55;29.90;;;19.27;;
10910;SDS011;5508;49.150;11.030;2023-03-09T17:55:56;36.87;;;24.43;;
10910;SDS011;5508;49.150;11.030;2023-03-09T17:58:57;23.97;;;15.63;;
10910;SDS011;5508;49.150;11.030;2023-03-09T18:01:58;14.83;;;7.67;;
10910;SDS011;5508;49.150;11.030;2023-03-09T18:04:59;12.90;;;9.23;;
10910;SDS011;5508;49.150;11.030;2023-03-09T18:08:00;35.17;;;22.13;;
10910;SDS011;5508;49.150;11.030;2023-03-09T18:11:00;30.50;;;16.13;;
10910;SDS011;5508;49.150;11.030;2023-03-09T18:14:01;18.40;;;11.20;;
10910;SDS011;5508;49.150;11.030;2023-03-09T18:17:03;18.23;;;12.70;;
10910;SDS011;5508;49.150;11.030;2023-03-09T18:20:04;13.83;;;10.40;;
10910;SDS011;5508;49.150;11.030;2023-03-09T18:23:05;24.93;;;20.50;;
10910;SDS011;5508;49.150;11.030;2023-03-09T18:26:06;10.60;;;8.67;;
10910;SDS011;5508;49.150;11.030;2023-03-09T18:29:16;10.40;;;7.57;;
10910;SDS011;5508;49.150;11.030;2023-03-09T18:32:20;21.40;;;16.03;;
10910;SDS011;5508;49.150;11.030;2023-03-09T18:35:22;8.63;;;6.73;;
10910;SDS011;5508;49.150;11.030;2023-03-09T18:38:23;9.33;;;4.90;;
10910;SDS011;5508;49.150;11.030;2023-03-09T18:41:23;8.03;;;5.03;;
10910;SDS011;5508;49.150;11.030;2023-03-09T18:44:24;10.50;;;3.40;;
10910;SDS011;5508;49.150;11.030;2023-03-09T18:47:25;7.70;;;5.73;;
10910;SDS011;5508;49.150;11.030;2023-03-09T18:50:26;10.13;;;5.90;;
10910;SDS011;5508;49.150;11.030;2023-03-09T18:53:27;11.17;;;5.27;;
10910;SDS011;5508;49.150;11.030;2023-03-09T18:56:29;9.80;;;4.23;;
10910;SDS011;5508;49.150;11.030;2023-03-09T18:59:29;19.03;;;12.00;;